KFCM/FCM METAR and TAF weather

Enter ICAO airport designator
Station Type Date Time Source
KFCM METAR 2018/12/17 01:53 UTC NOAA

KFCM 170153Z 30007KT 10SM CLR 02/M06 A3018 RMK AO2 SLP228 T00171061


Station Type Date Time Source
KFCM Decoded METAR 2018/12/17 01:53 UTC NOAA

Minneapolis, Flying Cloud Airport, MN, United States (KFCM) 44-49-56N 093-28-13W 280M
Dec 16, 2018 - 08:53 PM EST / 2018.12.17 0153 UTC
Wind: from the WNW (300 degrees) at 8 MPH (7 KT):0
Visibility: 10 mile(s):0
Sky conditions: clear
Temperature: 35.1 F (1.7 C)
Dew Point: 21.0 F (-6.1 C)
Relative Humidity: 56%
Pressure (altimeter): 30.18 in. Hg (1022 hPa)
ob: KFCM 170153Z 30007KT 10SM CLR 02/M06 A3018 RMK AO2 SLP228 T00171061
cycle: 2

Station Type Date Time Source
KFCM TAF 2018/02/05 20:59 UTC NOAA

TAF
AMD KFCM 051959Z 0520/0618 27007KT 6SM -SHSN BKN020 OVC050
TEMPO 0520/0522 SCT020 BKN050
FM052200 27007KT P6SM FEW020 BKN100
FM060100 31007KT P6SM FEW200
FM061000 VRB03KT P6SM FEW250
AMD NOT SKED


Example: see airport list